createdAt,value
2017-11-01T00:01:47.479Z,21.299999999999997
2017-11-01T00:03:47.638Z,20.799999999999997
2017-11-01T00:05:47.820Z,20.799999999999997
2017-11-01T00:07:48.009Z,20.799999999999997
2017-11-01T00:09:48.141Z,21.299999999999997
2017-11-01T00:11:48.260Z,21.299999999999997
2017-11-01T00:13:48.389Z,20.799999999999997
2017-11-01T00:15:48.560Z,21.299999999999997
2017-11-01T00:17:48.721Z,20.799999999999997
2017-11-01T00:19:48.891Z,20.799999999999997
2017-11-01T00:21:49.043Z,21.299999999999997
2017-11-01T00:23:49.227Z,20.799999999999997
2017-11-01T00:25:49.468Z,21.299999999999997
2017-11-01T00:27:49.506Z,21.299999999999997
2017-11-01T00:29:49.784Z,20.799999999999997
2017-11-01T00:31:49.941Z,20.799999999999997
2017-11-01T00:33:50.072Z,21.299999999999997
2017-11-01T00:35:50.241Z,21.299999999999997
2017-11-01T00:37:50.434Z,20.799999999999997
2017-11-01T00:39:50.545Z,20.799999999999997
2017-11-01T00:41:50.714Z,21.299999999999997
2017-11-01T00:43:50.915Z,21.299999999999997
2017-11-01T00:45:51.161Z,21.299999999999997
2017-11-01T00:47:51.206Z,20.799999999999997
2017-11-01T00:49:51.832Z,20.799999999999997
2017-11-01T00:51:51.485Z,21.299999999999997
2017-11-01T00:53:51.740Z,20.799999999999997
2017-11-01T00:55:51.900Z,20.799999999999997
2017-11-01T00:57:52.071Z,20.799999999999997
2017-11-01T00:59:52.314Z,20.799999999999997
2017-11-01T01:01:52.396Z,20.799999999999997
2017-11-01T01:03:52.586Z,20.799999999999997
2017-11-01T01:05:52.694Z,21.299999999999997
2017-11-01T01:07:53.760Z,20.799999999999997
2017-11-01T01:09:53.030Z,20.799999999999997
2017-11-01T01:11:53.242Z,21.299999999999997
2017-11-01T01:13:53.354Z,20.799999999999997
2017-11-01T01:15:53.561Z,21.299999999999997
2017-11-01T01:17:53.765Z,21.299999999999997
2017-11-01T01:19:53.911Z,21.299999999999997
2017-11-01T01:21:54.076Z,21.299999999999997
2017-11-01T01:23:54.272Z,21.299999999999997
2017-11-01T01:25:54.403Z,20.799999999999997
2017-11-01T01:27:54.583Z,21.9
2017-11-01T01:29:54.730Z,21.299999999999997
2017-11-01T01:31:54.995Z,21.299999999999997
2017-11-01T01:33:55.175Z,20.799999999999997
2017-11-01T01:35:55.224Z,20.799999999999997
2017-11-01T01:37:55.319Z,20.799999999999997
2017-11-01T01:39:55.584Z,21.299999999999997
2017-11-01T01:41:55.682Z,20.799999999999997
2017-11-01T01:43:55.799Z,20.799999999999997
2017-11-01T01:45:56.046Z,20.799999999999997
2017-11-01T01:47:56.199Z,20.799999999999997
2017-11-01T01:49:56.307Z,21.299999999999997
2017-11-01T01:51:56.443Z,21.299999999999997
2017-11-01T01:53:56.575Z,21.299999999999997
2017-11-01T01:55:56.771Z,21.299999999999997
2017-11-01T01:57:56.974Z,20.799999999999997
2017-11-01T01:59:57.121Z,20.799999999999997
2017-11-01T02:01:57.244Z,20.799999999999997
2017-11-01T02:03:57.454Z,21.299999999999997
2017-11-01T02:05:57.612Z,20.799999999999997
2017-11-01T02:07:57.827Z,20.799999999999997
2017-11-01T02:09:58.062Z,20.799999999999997
2017-11-01T02:11:58.166Z,20.799999999999997
2017-11-01T02:13:58.310Z,20.799999999999997
2017-11-01T02:15:58.540Z,20.799999999999997
2017-11-01T02:17:58.706Z,20.799999999999997
2017-11-01T02:19:58.824Z,21.299999999999997
2017-11-01T02:21:58.941Z,20.799999999999997
2017-11-01T02:23:59.104Z,21.299999999999997
2017-11-01T02:25:59.204Z,20.799999999999997
2017-11-01T02:27:59.317Z,20.799999999999997
2017-11-01T02:29:59.471Z,20.799999999999997
2017-11-01T02:31:59.717Z,20.799999999999997
2017-11-01T02:33:59.724Z,20.799999999999997
2017-11-01T02:35:59.824Z,21.299999999999997
2017-11-01T02:37:59.971Z,20.799999999999997
2017-11-01T02:40:00.131Z,21.299999999999997
2017-11-01T02:42:00.429Z,21.299999999999997
2017-11-01T02:44:00.502Z,20.799999999999997
2017-11-01T02:46:00.681Z,20.799999999999997
2017-11-01T02:48:00.826Z,21.299999999999997
2017-11-01T02:50:00.919Z,20.799999999999997
2017-11-01T02:52:01.060Z,21.299999999999997
2017-11-01T02:54:01.172Z,20.799999999999997
2017-11-01T02:56:01.559Z,21.299999999999997
2017-11-01T02:58:01.581Z,20.799999999999997
2017-11-01T03:00:01.831Z,20.799999999999997
2017-11-01T03:02:02.106Z,20.799999999999997
2017-11-01T03:04:02.185Z,21.299999999999997
2017-11-01T03:06:02.312Z,21.299999999999997
2017-11-01T03:08:02.438Z,21.299999999999997
2017-11-01T03:10:02.591Z,20.799999999999997
2017-11-01T03:12:02.731Z,20.799999999999997
2017-11-01T03:14:02.964Z,21.299999999999997
2017-11-01T03:16:03.036Z,20.799999999999997
2017-11-01T03:18:03.194Z,20.799999999999997
2017-11-01T03:20:03.353Z,21.299999999999997
2017-11-01T03:22:03.422Z,21.299999999999997
2017-11-01T03:24:03.590Z,20.799999999999997
2017-11-01T03:26:03.708Z,20.799999999999997
2017-11-01T03:28:03.888Z,20.799999999999997
2017-11-01T03:30:04.011Z,21.299999999999997
2017-11-01T03:32:04.180Z,20.799999999999997
2017-11-01T03:34:04.500Z,20.799999999999997
2017-11-01T03:36:04.520Z,20.799999999999997
2017-11-01T03:38:04.636Z,21.299999999999997
2017-11-01T03:40:04.758Z,21.299999999999997
2017-11-01T03:42:04.923Z,20.799999999999997
2017-11-01T03:44:05.060Z,20.799999999999997
2017-11-01T03:46:05.501Z,21.299999999999997
2017-11-01T03:48:05.330Z,20.799999999999997
2017-11-01T03:50:05.487Z,20.799999999999997
2017-11-01T03:52:05.619Z,20.799999999999997
2017-11-01T03:54:05.690Z,21.299999999999997
2017-11-01T03:56:05.862Z,21.299999999999997
2017-11-01T03:58:05.990Z,20.799999999999997
2017-11-01T04:00:06.161Z,21.299999999999997
2017-11-01T04:02:06.272Z,21.299999999999997
2017-11-01T04:04:06.463Z,20.799999999999997
2017-11-01T04:06:06.562Z,20.799999999999997
2017-11-01T04:08:06.763Z,20.799999999999997
2017-11-01T04:10:06.877Z,21.299999999999997
2017-11-01T04:12:07.019Z,21.299999999999997
2017-11-01T04:14:07.183Z,21.299999999999997
2017-11-01T04:16:07.303Z,21.299999999999997
2017-11-01T04:18:07.496Z,21.299999999999997
2017-11-01T04:20:07.616Z,20.799999999999997
2017-11-01T04:22:07.876Z,21.299999999999997
2017-11-01T04:24:08.053Z,21.299999999999997
2017-11-01T04:26:08.268Z,20.799999999999997
2017-11-01T04:28:08.381Z,21.299999999999997
2017-11-01T04:30:08.571Z,20.799999999999997
2017-11-01T04:32:08.754Z,20.799999999999997
2017-11-01T04:34:08.856Z,21.9
2017-11-01T04:36:09.006Z,20.799999999999997
2017-11-01T04:38:09.156Z,20.799999999999997
2017-11-01T04:40:09.262Z,20.799999999999997
2017-11-01T04:42:09.417Z,20.799999999999997
2017-11-01T04:44:09.586Z,20.799999999999997
2017-11-01T04:46:09.714Z,21.299999999999997
2017-11-01T04:48:10.633Z,20.799999999999997
2017-11-01T04:50:09.952Z,20.799999999999997
2017-11-01T04:52:10.254Z,20.799999999999997
2017-11-01T04:54:10.237Z,20.799999999999997
2017-11-01T04:56:10.374Z,20.799999999999997
2017-11-01T04:58:10.865Z,21.299999999999997
2017-11-01T05:00:10.651Z,20.799999999999997
2017-11-01T05:02:10.830Z,20.799999999999997
2017-11-01T05:04:10.962Z,20.799999999999997
2017-11-01T05:06:11.100Z,20.799999999999997
2017-11-01T05:08:11.249Z,20.799999999999997
2017-11-01T05:10:11.419Z,20.799999999999997
2017-11-01T05:12:11.513Z,20.799999999999997
2017-11-01T05:14:11.719Z,20.799999999999997
2017-11-01T05:16:11.872Z,21.299999999999997
2017-11-01T05:18:11.970Z,20.799999999999997
2017-11-01T05:20:12.174Z,20.799999999999997
2017-11-01T05:22:12.295Z,20.799999999999997
2017-11-01T05:24:12.560Z,20.799999999999997
2017-11-01T05:26:12.671Z,20.799999999999997
2017-11-01T05:28:12.681Z,20.799999999999997
2017-11-01T05:30:12.867Z,20.799999999999997
2017-11-01T05:32:12.978Z,21.299999999999997
2017-11-01T05:34:13.030Z,20.799999999999997
2017-11-01T05:36:13.169Z,21.299999999999997
2017-11-01T05:38:13.319Z,20.799999999999997
2017-11-01T05:40:13.454Z,20.799999999999997
2017-11-01T05:42:13.563Z,20.799999999999997
2017-11-01T05:44:13.710Z,21.299999999999997
2017-11-01T05:46:14.911Z,20.799999999999997
2017-11-01T05:48:13.909Z,20.799999999999997
2017-11-01T05:50:14.043Z,20.799999999999997
2017-11-01T05:52:14.258Z,20.799999999999997
2017-11-01T05:54:14.403Z,20.799999999999997
2017-11-01T05:56:14.731Z,21.299999999999997
2017-11-01T05:58:14.663Z,20.799999999999997
2017-11-01T06:00:14.780Z,20.799999999999997
2017-11-01T06:02:14.973Z,21.299999999999997
2017-11-01T06:04:15.035Z,20.799999999999997
2017-11-01T06:06:15.673Z,20.799999999999997
2017-11-01T06:08:15.262Z,20.799999999999997
2017-11-01T06:10:15.421Z,20.799999999999997
2017-11-01T06:12:15.528Z,20.799999999999997
2017-11-01T06:14:15.752Z,21.299999999999997
2017-11-01T06:16:15.889Z,20.799999999999997
2017-11-01T06:18:15.940Z,20.799999999999997
2017-11-01T06:20:16.060Z,20.799999999999997
2017-11-01T06:22:16.231Z,20.799999999999997
2017-11-01T06:24:16.340Z,20.799999999999997
2017-11-01T06:26:16.486Z,20.799999999999997
2017-11-01T06:28:16.647Z,20.799999999999997
2017-11-01T06:30:16.714Z,21.299999999999997
2017-11-01T06:32:16.814Z,20.799999999999997
2017-11-01T06:34:17.123Z,21.299999999999997
2017-11-01T06:36:17.199Z,21.299999999999997
2017-11-01T06:38:17.331Z,20.799999999999997
2017-11-01T06:40:17.514Z,20.799999999999997
2017-11-01T06:42:17.770Z,20.799999999999997
2017-11-01T06:44:17.858Z,20.799999999999997
2017-11-01T06:46:17.974Z,21.299999999999997
2017-11-01T06:48:18.127Z,20.799999999999997
2017-11-01T06:50:18.221Z,20.799999999999997
2017-11-01T06:52:18.358Z,20.799999999999997
2017-11-01T06:54:18.509Z,20.799999999999997
2017-11-01T06:56:18.630Z,20.799999999999997
2017-11-01T06:58:18.780Z,21.299999999999997
2017-11-01T07:00:18.892Z,20.799999999999997
2017-11-01T07:02:18.984Z,21.299999999999997
2017-11-01T07:04:19.233Z,20.799999999999997
2017-11-01T07:06:19.411Z,20.799999999999997
2017-11-01T07:08:19.510Z,20.799999999999997
2017-11-01T07:10:19.612Z,20.799999999999997
2017-11-01T07:12:19.761Z,21.299999999999997
2017-11-01T07:14:19.879Z,20.799999999999997
2017-11-01T07:16:19.988Z,21.299999999999997
2017-11-01T07:18:20.199Z,21.299999999999997
2017-11-01T07:20:20.291Z,21.299999999999997
2017-11-01T07:22:20.423Z,20.799999999999997
2017-11-01T07:24:20.539Z,20.799999999999997
2017-11-01T07:26:20.677Z,20.799999999999997
2017-11-01T07:28:20.768Z,21.299999999999997
2017-11-01T07:30:20.942Z,21.9
2017-11-01T07:32:21.078Z,21.299999999999997
2017-11-01T07:34:21.175Z,20.799999999999997
2017-11-01T07:36:21.344Z,20.799999999999997
2017-11-01T07:38:21.426Z,21.299999999999997
2017-11-01T07:40:21.571Z,20.799999999999997
2017-11-01T07:42:21.678Z,21.299999999999997
2017-11-01T07:44:21.788Z,21.299999999999997
2017-11-01T07:46:21.908Z,21.9
2017-11-01T07:48:22.197Z,21.9
2017-11-01T07:50:22.312Z,21.299999999999997
2017-11-01T07:52:22.409Z,21.299999999999997
2017-11-01T07:54:22.484Z,21.299999999999997
2017-11-01T07:56:22.628Z,21.9
2017-11-01T07:58:22.748Z,21.9
2017-11-01T08:00:22.892Z,21.9
2017-11-01T08:02:23.124Z,21.9
2017-11-01T08:04:23.244Z,20.799999999999997
2017-11-01T08:06:23.356Z,21.299999999999997
2017-11-01T08:08:23.663Z,21.9
2017-11-01T08:10:23.607Z,20.799999999999997
2017-11-01T08:12:23.765Z,21.299999999999997
2017-11-01T08:14:23.870Z,21.299999999999997
2017-11-01T08:16:24.015Z,21.9
2017-11-01T08:18:24.150Z,21.9
2017-11-01T08:20:24.301Z,22.4
2017-11-01T08:22:24.378Z,21.299999999999997
2017-11-01T08:24:24.570Z,21.9
2017-11-01T08:26:24.646Z,21.299999999999997
2017-11-01T08:28:24.851Z,21.9
2017-11-01T08:30:24.936Z,21.9
2017-11-01T08:32:25.181Z,21.9
2017-11-01T08:34:25.312Z,21.299999999999997
2017-11-01T08:36:25.440Z,21.9
2017-11-01T08:38:25.544Z,21.299999999999997
2017-11-01T08:40:25.672Z,21.299999999999997
2017-11-01T08:42:25.846Z,21.299999999999997
2017-11-01T08:44:26.014Z,21.9
2017-11-01T08:46:26.122Z,21.299999999999997
2017-11-01T08:48:26.233Z,21.9
2017-11-01T08:50:26.446Z,21.9
2017-11-01T08:52:26.611Z,20.799999999999997
2017-11-01T08:54:26.630Z,21.299999999999997
2017-11-01T08:56:26.770Z,21.299999999999997
2017-11-01T08:58:26.936Z,21.299999999999997
2017-11-01T09:00:27.067Z,21.9
2017-11-01T09:02:27.273Z,21.9
2017-11-01T09:04:27.405Z,21.299999999999997
2017-11-01T09:06:27.628Z,21.9
2017-11-01T09:08:27.692Z,21.299999999999997
2017-11-01T09:10:27.871Z,21.299999999999997
2017-11-01T09:12:27.981Z,21.9
2017-11-01T09:14:28.111Z,21.9
2017-11-01T09:16:28.278Z,21.299999999999997
2017-11-01T09:18:28.489Z,21.299999999999997
2017-11-01T09:20:28.582Z,21.299999999999997
2017-11-01T09:22:28.699Z,21.299999999999997
2017-11-01T09:24:28.878Z,21.299999999999997
2017-11-01T09:26:29.008Z,21.299999999999997
2017-11-01T09:28:29.122Z,21.9
2017-11-01T09:30:29.253Z,21.9
2017-11-01T09:32:29.479Z,21.9
2017-11-01T09:34:29.537Z,21.9
2017-11-01T09:36:29.670Z,21.9
2017-11-01T09:38:29.829Z,21.9
2017-11-01T09:40:29.901Z,21.299999999999997
2017-11-01T09:42:30.191Z,21.9
2017-11-01T09:44:30.306Z,21.9
2017-11-01T09:46:30.431Z,21.9
2017-11-01T09:48:30.567Z,21.9
2017-11-01T09:50:30.884Z,21.9
2017-11-01T09:52:30.855Z,21.9
2017-11-01T09:54:31.001Z,21.9
2017-11-01T09:56:31.126Z,21.9
2017-11-01T09:58:31.243Z,22.4
2017-11-01T10:00:31.445Z,22.4
2017-11-01T10:02:33.171Z,21.9
2017-11-01T10:04:31.629Z,21.9
2017-11-01T10:06:31.768Z,21.9
2017-11-01T10:08:31.969Z,21.9
2017-11-01T10:10:32.163Z,22.4
2017-11-01T10:12:32.131Z,21.9
2017-11-01T10:14:32.389Z,21.9
2017-11-01T10:16:32.521Z,22.9
2017-11-01T10:18:32.612Z,22.4
2017-11-01T10:20:32.703Z,22.4
2017-11-01T10:22:32.913Z,22.9
2017-11-01T10:24:33.238Z,22.9
2017-11-01T10:26:33.370Z,22.4
2017-11-01T10:28:33.488Z,22.9
2017-11-01T10:30:33.614Z,22.9
2017-11-01T10:32:33.742Z,22.4
2017-11-01T10:34:34.066Z,22.9
2017-11-01T10:36:33.977Z,22.9
2017-11-01T10:38:34.102Z,22.4
2017-11-01T10:40:34.242Z,22.9
2017-11-01T10:42:34.373Z,22.9
2017-11-01T10:44:34.465Z,22.9
2017-11-01T10:46:34.653Z,22.9
2017-11-01T10:48:34.804Z,22.9
2017-11-01T10:50:34.923Z,22.4
2017-11-01T10:52:35.019Z,22.9
2017-11-01T10:54:35.145Z,22.9
2017-11-01T10:56:35.285Z,21.9
2017-11-01T10:58:35.378Z,22.4
2017-11-01T11:00:35.529Z,22.4
2017-11-01T11:02:35.690Z,22.9
2017-11-01T11:04:35.871Z,22.4
2017-11-01T11:06:36.100Z,22.9
2017-11-01T11:08:36.096Z,22.9
2017-11-01T11:10:36.274Z,22.9
2017-11-01T11:12:36.495Z,22.9
2017-11-01T11:14:36.542Z,22.9
2017-11-01T11:16:36.668Z,22.9
2017-11-01T11:18:36.793Z,22.9
2017-11-01T11:20:36.897Z,22.9
2017-11-01T11:22:37.083Z,22.9
2017-11-01T11:24:37.214Z,22.9
2017-11-01T11:26:37.401Z,22.4
2017-11-01T11:28:37.442Z,23.5
2017-11-01T11:30:37.618Z,22.9
2017-11-01T11:32:37.723Z,22.9
2017-11-01T11:34:37.841Z,22.9
2017-11-01T11:36:37.967Z,22.9
2017-11-01T11:38:38.115Z,22.9
2017-11-01T11:40:38.246Z,22.9
2017-11-01T11:42:38.404Z,22.9
2017-11-01T11:44:38.524Z,22.9
2017-11-01T11:46:38.603Z,22.9
2017-11-01T11:48:38.740Z,23.5
2017-11-01T11:50:38.852Z,22.9
2017-11-01T11:52:38.973Z,22.9
2017-11-01T11:54:39.094Z,22.9
2017-11-01T11:56:39.223Z,22.9
2017-11-01T11:58:39.335Z,22.9
2017-11-01T12:00:39.441Z,22.9
2017-11-01T12:02:39.616Z,22.9
2017-11-01T12:04:39.687Z,23.5
2017-11-01T12:06:39.818Z,22.9
2017-11-01T12:08:40.012Z,22.9
2017-11-01T12:10:40.122Z,22.9
2017-11-01T12:12:40.266Z,23.5
2017-11-01T12:14:40.658Z,23.5
2017-11-01T12:16:40.551Z,23.5
2017-11-01T12:18:40.739Z,22.9
2017-11-01T12:20:40.877Z,22.9
2017-11-01T12:22:40.937Z,23.5
2017-11-01T12:24:41.071Z,23.5
2017-11-01T12:26:41.270Z,22.9
2017-11-01T12:28:41.441Z,23.5
2017-11-01T12:30:41.536Z,22.9
2017-11-01T12:32:41.692Z,22.9
2017-11-01T12:34:41.837Z,23.5
2017-11-01T12:36:41.962Z,22.9
2017-11-01T12:38:42.229Z,22.9
2017-11-01T12:40:42.373Z,23.5
2017-11-01T12:42:42.481Z,22.9
2017-11-01T12:44:42.555Z,22.9
2017-11-01T12:46:42.690Z,22.9
2017-11-01T12:48:42.864Z,22.9
2017-11-01T12:50:42.960Z,22.9
2017-11-01T12:52:43.348Z,22.9
2017-11-01T12:54:43.410Z,22.9
2017-11-01T12:56:43.553Z,23.5
2017-11-01T12:58:43.693Z,23.5
2017-11-01T13:00:43.813Z,22.9
2017-11-01T13:02:43.906Z,22.9
2017-11-01T13:04:44.066Z,22.9
2017-11-01T13:06:44.166Z,22.9
2017-11-01T13:08:44.354Z,22.9
2017-11-01T13:10:44.491Z,22.9
2017-11-01T13:12:44.821Z,22.9
2017-11-01T13:14:44.726Z,22.9
2017-11-01T13:16:44.866Z,22.9
2017-11-01T13:18:45.241Z,22.9
2017-11-01T13:20:45.223Z,23.5
2017-11-01T13:22:45.397Z,23.5
2017-11-01T13:24:45.502Z,22.9
2017-11-01T13:26:45.609Z,22.9
2017-11-01T13:28:45.804Z,22.9
2017-11-01T13:30:45.894Z,22.9
2017-11-01T13:32:46.016Z,23.5
2017-11-01T13:34:46.230Z,22.9
2017-11-01T13:36:46.419Z,22.9
2017-11-01T13:38:46.594Z,22.9
2017-11-01T13:40:46.696Z,22.9
2017-11-01T13:42:46.840Z,21.9
2017-11-01T13:44:47.082Z,22.9
2017-11-01T13:46:47.183Z,22.4
2017-11-01T13:48:47.326Z,22.9
2017-11-01T13:50:47.494Z,23.5
2017-11-01T13:52:47.633Z,22.9
2017-11-01T13:54:47.890Z,22.9
2017-11-01T13:56:47.896Z,22.9
2017-11-01T13:58:48.059Z,22.9
2017-11-01T14:00:48.159Z,22.9
2017-11-01T14:02:48.288Z,22.9
2017-11-01T14:04:48.419Z,22.9
2017-11-01T14:06:48.542Z,22.9
2017-11-01T14:08:49.627Z,22.9
2017-11-01T14:10:48.883Z,22.4
2017-11-01T14:12:49.061Z,22.9
2017-11-01T14:14:49.264Z,22.4
2017-11-01T14:16:49.390Z,22.9
2017-11-01T14:18:49.582Z,22.9
2017-11-01T14:20:49.914Z,22.9
2017-11-01T14:22:50.026Z,21.9
2017-11-01T14:24:50.137Z,22.9
2017-11-01T14:26:50.303Z,22.9
2017-11-01T14:28:50.459Z,22.4
2017-11-01T14:30:50.625Z,22.9
2017-11-01T14:32:50.704Z,21.9
2017-11-01T14:34:50.798Z,22.4
2017-11-01T14:36:50.951Z,22.9
2017-11-01T14:38:51.079Z,22.4
2017-11-01T14:40:51.245Z,22.4
2017-11-01T14:42:51.349Z,21.9
2017-11-01T14:44:51.602Z,22.4
2017-11-01T14:46:51.694Z,22.4
2017-11-01T14:48:51.815Z,22.9
2017-11-01T14:50:51.926Z,21.9
2017-11-01T14:52:52.020Z,21.9
2017-11-01T14:54:52.172Z,22.4
2017-11-01T14:56:52.299Z,21.9
2017-11-01T14:58:52.396Z,22.4
2017-11-01T15:00:52.535Z,22.4
2017-11-01T15:02:52.736Z,21.9
2017-11-01T15:04:52.807Z,22.4
2017-11-01T15:06:52.949Z,21.9
2017-11-01T15:08:53.079Z,21.9
2017-11-01T15:10:53.139Z,22.4
2017-11-01T15:12:53.280Z,21.9
2017-11-01T15:14:53.428Z,22.4
2017-11-01T15:16:53.665Z,22.4
2017-11-01T15:18:53.677Z,21.9
2017-11-01T15:20:53.883Z,21.9
2017-11-01T15:22:54.205Z,22.4
2017-11-01T15:24:54.222Z,22.4
2017-11-01T15:26:54.430Z,22.4
2017-11-01T15:28:54.631Z,22.9
2017-11-01T15:30:54.572Z,22.4
2017-11-01T15:32:54.731Z,22.4
2017-11-01T15:34:54.856Z,22.4
2017-11-01T15:36:54.989Z,21.9
2017-11-01T15:38:55.094Z,21.9
2017-11-01T15:40:55.254Z,21.9
2017-11-01T15:42:55.338Z,20.799999999999997
2017-11-01T15:44:55.452Z,20.799999999999997
2017-11-01T15:46:55.685Z,21.299999999999997
2017-11-01T15:48:55.712Z,20.799999999999997
2017-11-01T15:50:55.856Z,20.799999999999997
2017-11-01T15:52:56.038Z,20.799999999999997
2017-11-01T15:54:56.281Z,20.799999999999997
2017-11-01T15:56:56.345Z,20.799999999999997
2017-11-01T15:58:56.463Z,20.799999999999997
2017-11-01T16:00:56.624Z,20.799999999999997
2017-11-01T16:02:56.730Z,20.799999999999997
2017-11-01T16:04:56.862Z,20.799999999999997
2017-11-01T16:06:56.978Z,21.299999999999997
2017-11-01T16:08:57.144Z,20.799999999999997
2017-11-01T16:10:57.340Z,21.299999999999997
2017-11-01T16:12:57.378Z,20.799999999999997
2017-11-01T16:14:57.572Z,19.700000000000003
2017-11-01T16:16:57.619Z,20.799999999999997
2017-11-01T16:18:57.753Z,21.299999999999997
2017-11-01T16:20:57.964Z,20.799999999999997
2017-11-01T16:22:58.014Z,21.9
2017-11-01T16:24:58.142Z,21.9
2017-11-01T16:26:58.408Z,21.299999999999997
2017-11-01T16:28:58.520Z,21.299999999999997
2017-11-01T16:30:58.610Z,21.9
2017-11-01T16:32:58.699Z,21.299999999999997
2017-11-01T16:34:58.942Z,21.299999999999997
2017-11-01T16:36:58.922Z,21.9
2017-11-01T16:38:59.075Z,21.9
2017-11-01T16:40:59.198Z,21.9
2017-11-01T16:42:59.342Z,20.799999999999997
2017-11-01T16:44:59.470Z,21.9
2017-11-01T16:46:59.712Z,21.9
2017-11-01T16:48:59.773Z,21.299999999999997
2017-11-01T16:50:59.895Z,21.9
2017-11-01T16:53:00.134Z,20.799999999999997
2017-11-01T16:55:00.211Z,20.799999999999997
2017-11-01T16:57:00.351Z,20.799999999999997
2017-11-01T16:59:00.495Z,20.799999999999997
2017-11-01T17:01:05.637Z,20.799999999999997
2017-11-01T17:03:00.759Z,20.799999999999997
2017-11-01T17:05:00.878Z,20.799999999999997
2017-11-01T17:07:00.974Z,20.799999999999997
2017-11-01T17:09:01.085Z,20.799999999999997
2017-11-01T17:11:01.225Z,20.200000000000003
2017-11-01T17:13:01.934Z,20.799999999999997
2017-11-01T17:15:02.047Z,20.200000000000003
2017-11-01T17:17:02.105Z,20.799999999999997
2017-11-01T17:19:02.497Z,19.700000000000003
2017-11-01T17:21:02.603Z,20.200000000000003
2017-11-01T17:23:02.774Z,20.799999999999997
2017-11-01T17:25:02.884Z,20.799999999999997
2017-11-01T17:27:03.000Z,20.799999999999997
2017-11-01T17:29:03.081Z,21.299999999999997
2017-11-01T17:31:03.244Z,21.299999999999997
2017-11-01T17:33:03.397Z,21.299999999999997
2017-11-01T17:35:03.535Z,20.799999999999997
2017-11-01T17:37:03.684Z,20.799999999999997
2017-11-01T17:39:03.777Z,21.9
2017-11-01T17:41:03.878Z,21.299999999999997
2017-11-01T17:43:04.057Z,21.299999999999997
2017-11-01T17:45:04.357Z,21.9
2017-11-01T17:47:04.317Z,21.299999999999997
2017-11-01T17:49:04.461Z,21.299999999999997
2017-11-01T17:51:04.623Z,21.299999999999997
2017-11-01T17:53:04.732Z,20.799999999999997
2017-11-01T17:55:04.840Z,20.799999999999997
2017-11-01T17:57:05.240Z,20.799999999999997
2017-11-01T17:59:05.188Z,20.799999999999997
2017-11-01T18:01:05.277Z,20.799999999999997
2017-11-01T18:03:05.404Z,20.799999999999997
2017-11-01T18:05:06.711Z,20.799999999999997
2017-11-01T18:07:05.637Z,20.799999999999997
2017-11-01T18:09:05.817Z,20.799999999999997
2017-11-01T18:11:05.954Z,19.700000000000003
2017-11-01T18:13:06.066Z,19.700000000000003
2017-11-01T18:15:06.186Z,19.700000000000003
2017-11-01T18:17:06.296Z,19.700000000000003
2017-11-01T18:19:06.414Z,19.700000000000003
2017-11-01T18:21:06.596Z,19.700000000000003
2017-11-01T18:23:06.708Z,19.700000000000003
2017-11-01T18:25:06.826Z,19.700000000000003
2017-11-01T18:27:12.018Z,19.200000000000003
2017-11-01T18:29:07.093Z,19.700000000000003
2017-11-01T18:31:07.221Z,19.700000000000003
2017-11-01T18:33:08.180Z,19.700000000000003
2017-11-01T18:35:07.594Z,20.799999999999997
2017-11-01T18:37:07.715Z,20.799999999999997
2017-11-01T18:39:07.902Z,20.799999999999997
2017-11-01T18:41:07.997Z,20.799999999999997
2017-11-01T18:43:08.256Z,20.799999999999997
2017-11-01T18:45:08.470Z,20.799999999999997
2017-11-01T18:47:08.549Z,21.299999999999997
2017-11-01T18:49:08.739Z,21.299999999999997
2017-11-01T18:51:08.881Z,21.299999999999997
2017-11-01T18:53:08.985Z,21.299999999999997
2017-11-01T18:55:09.140Z,21.299999999999997
2017-11-01T18:57:09.251Z,20.799999999999997
2017-11-01T18:59:09.392Z,20.799999999999997
2017-11-01T19:01:09.568Z,20.799999999999997
2017-11-01T19:03:09.705Z,20.200000000000003
2017-11-01T19:05:09.842Z,20.200000000000003
2017-11-01T19:07:09.930Z,19.700000000000003
2017-11-01T19:09:10.040Z,19.700000000000003
2017-11-01T19:11:10.181Z,19.700000000000003
2017-11-01T19:13:10.532Z,20.200000000000003
2017-11-01T19:15:10.585Z,20.799999999999997
2017-11-01T19:17:10.850Z,20.200000000000003
2017-11-01T19:19:10.863Z,20.200000000000003
2017-11-01T19:21:10.998Z,20.799999999999997
2017-11-01T19:23:11.095Z,19.700000000000003
2017-11-01T19:25:11.238Z,19.700000000000003
2017-11-01T19:27:11.434Z,19.700000000000003
2017-11-01T19:29:11.501Z,19.200000000000003
2017-11-01T19:31:11.635Z,19.200000000000003
2017-11-01T19:33:11.766Z,19.700000000000003
2017-11-01T19:35:11.888Z,19.700000000000003
2017-11-01T19:37:12.026Z,19.200000000000003
2017-11-01T19:39:12.153Z,20.200000000000003
2017-11-01T19:41:12.290Z,20.200000000000003
2017-11-01T19:43:12.808Z,20.799999999999997
2017-11-01T19:45:12.555Z,20.799999999999997
2017-11-01T19:47:12.716Z,20.799999999999997
2017-11-01T19:49:12.838Z,20.799999999999997
2017-11-01T19:51:13.018Z,21.299999999999997
2017-11-01T19:53:13.171Z,20.799999999999997
2017-11-01T19:55:13.347Z,20.799999999999997
2017-11-01T19:57:14.279Z,20.799999999999997
2017-11-01T19:59:13.665Z,21.299999999999997
2017-11-01T20:01:13.786Z,20.799999999999997
2017-11-01T20:03:13.893Z,20.799999999999997
2017-11-01T20:05:14.021Z,20.799999999999997
2017-11-01T20:07:14.304Z,19.700000000000003
2017-11-01T20:09:14.384Z,19.200000000000003
2017-11-01T20:11:14.412Z,18.6
2017-11-01T20:13:14.552Z,18.6
2017-11-01T20:15:14.651Z,18.6
2017-11-01T20:17:14.828Z,18.6
2017-11-01T20:19:15.014Z,19.700000000000003
2017-11-01T20:21:15.129Z,19.200000000000003
2017-11-01T20:23:15.198Z,20.200000000000003
2017-11-01T20:25:15.342Z,20.200000000000003
2017-11-01T20:27:15.455Z,20.799999999999997
2017-11-01T20:29:15.619Z,20.799999999999997
2017-11-01T20:31:15.762Z,20.799999999999997
2017-11-01T20:33:15.864Z,20.799999999999997
2017-11-01T20:35:16.069Z,20.799999999999997